Time;durP1;ratioP1;P1;durP2;ratioP2;P2;SDS_P1;SDS_P2;PMS_P1;PMS_P2;Temp;Humidity;BMP_temperature;BMP_pressure;BME280_temperature;BME280_humidity;BME280_pressure;Samples;Min_cycle;Max_cycle;Signal;HPM_P1;HPM_P2
2021/12/23 00:00:34;;;;;;;19.63;13.65;;;;;;;;;;5030493;28;20083;-75
2021/12/23 00:03:00;;;;;;;18.10;12.50;;;;;;;;;;5001356;28;20095;-74
2021/12/23 00:05:26;;;;;;;18.88;13.10;;;;;;;;;;5016476;28;20449;-74
2021/12/23 00:07:52;;;;;;;16.50;12.20;;;;;;;;;;5031043;28;20037;-76
2021/12/23 00:10:18;;;;;;;19.55;13.23;;;;;;;;;;5024878;28;20517;-75
2021/12/23 00:12:45;;;;;;;17.60;13.00;;;;;;;;;;5035303;28;20037;-75
2021/12/23 00:15:23;;;;;;;16.05;12.25;;;;;;;;;;5001282;28;20365;-74
2021/12/23 00:25:50;;;;;;;20.02;12.80;;;;;;;;;;5041747;28;20041;-74
2021/12/23 00:28:17;;;;;;;16.00;12.23;;;;;;;;;;5033432;28;20033;-75
2021/12/23 00:30:43;;;;;;;17.00;12.40;;;;;;;;;;5044566;28;20045;-75
2021/12/23 00:33:09;;;;;;;16.20;12.02;;;;;;;;;;5024146;28;20341;-75
2021/12/23 00:35:35;;;;;;;17.88;12.38;;;;;;;;;;5035753;28;20052;-75
2021/12/23 00:38:07;;;;;;;19.02;12.30;;;;;;;;;;5037195;28;20454;-75
2021/12/23 00:40:33;;;;;;;19.80;13.07;;;;;;;;;;5037243;28;20128;-74
2021/12/23 00:42:59;;;;;;;17.75;12.18;;;;;;;;;;5035108;28;20056;-75
2021/12/23 00:45:25;;;;;;;20.00;13.93;;;;;;;;;;5039036;28;20046;-75
2021/12/23 00:47:51;;;;;;;18.77;12.00;;;;;;;;;;5053735;28;20396;-75
2021/12/23 00:50:17;;;;;;;18.05;12.70;;;;;;;;;;5048953;28;20033;-76
2021/12/23 00:52:43;;;;;;;20.23;13.30;;;;;;;;;;5035874;28;20033;-75
2021/12/23 00:55:11;;;;;;;18.15;12.00;;;;;;;;;;5034697;28;20041;-74
2021/12/23 00:57:39;;;;;;;18.73;12.38;;;;;;;;;;5044266;28;20036;-75
2021/12/23 01:00:10;;;;;;;17.80;12.48;;;;;;;;;;5034790;28;20037;-74
2021/12/23 01:02:37;;;;;;;17.65;12.55;;;;;;;;;;5052799;28;20036;-75
2021/12/23 01:05:03;;;;;;;18.95;12.70;;;;;;;;;;5035957;28;20034;-75
2021/12/23 01:07:29;;;;;;;18.67;13.00;;;;;;;;;;5029760;28;20052;-74
2021/12/23 01:09:56;;;;;;;17.40;12.40;;;;;;;;;;5017517;28;20052;-76
2021/12/23 01:12:28;;;;;;;18.77;13.00;;;;;;;;;;5000358;28;20052;-75
2021/12/23 01:15:10;;;;;;;17.88;12.40;;;;;;;;;;5034375;28;20128;-75
2021/12/23 01:17:53;;;;;;;21.67;13.20;;;;;;;;;;5033106;28;20100;-75
2021/12/23 01:20:25;;;;;;;17.48;12.38;;;;;;;;;;5033237;28;20045;-74
2021/12/23 01:22:52;;;;;;;19.08;12.85;;;;;;;;;;5035209;28;20139;-76
2021/12/23 01:25:18;;;;;;;16.95;11.98;;;;;;;;;;5035664;28;20037;-74
2021/12/23 01:27:44;;;;;;;18.80;13.00;;;;;;;;;;5053009;28;20360;-75
2021/12/23 01:30:10;;;;;;;19.20;13.43;;;;;;;;;;5036675;28;20056;-74
2021/12/23 01:32:36;;;;;;;20.95;13.40;;;;;;;;;;5052167;28;20036;-74
2021/12/23 01:35:03;;;;;;;18.92;13.65;;;;;;;;;;5054389;28;20115;-74
2021/12/23 01:37:29;;;;;;;19.10;12.95;;;;;;;;;;5051267;28;20044;-74
2021/12/23 01:39:55;;;;;;;21.15;14.13;;;;;;;;;;5053134;28;20357;-74
2021/12/23 01:42:21;;;;;;;21.67;13.63;;;;;;;;;;5053455;28;20110;-75
2021/12/23 01:44:47;;;;;;;20.60;13.52;;;;;;;;;;5038919;28;20063;-75
2021/12/23 01:47:13;;;;;;;18.67;13.40;;;;;;;;;;5041201;28;20102;-74
2021/12/23 01:49:39;;;;;;;18.85;12.98;;;;;;;;;;5044067;28;20045;-76
2021/12/23 01:52:05;;;;;;;18.60;12.50;;;;;;;;;;5038567;28;20387;-75
2021/12/23 01:54:31;;;;;;;19.52;13.40;;;;;;;;;;5040294;28;20045;-74
2021/12/23 01:56:58;;;;;;;17.60;12.30;;;;;;;;;;5030562;28;20060;-75
2021/12/23 01:59:24;;;;;;;17.55;13.18;;;;;;;;;;5039470;28;20353;-74
2021/12/23 02:01:50;;;;;;;17.75;13.77;;;;;;;;;;5039922;28;20041;-75
2021/12/23 02:04:16;;;;;;;18.38;12.75;;;;;;;;;;5056886;28;20036;-77
2021/12/23 02:06:42;;;;;;;16.80;13.00;;;;;;;;;;5052111;28;20119;-75
2021/12/23 02:09:08;;;;;;;18.27;12.48;;;;;;;;;;5047527;28;20403;-76
2021/12/23 02:11:34;;;;;;;17.92;12.75;;;;;;;;;;5056636;28;20098;-75
2021/12/23 02:14:00;;;;;;;22.90;13.35;;;;;;;;;;5055461;28;20460;-74
2021/12/23 02:16:26;;;;;;;17.98;12.55;;;;;;;;;;5049937;28;20032;-75
2021/12/23 02:18:52;;;;;;;20.95;12.95;;;;;;;;;;5056255;28;20064;-76
2021/12/23 02:21:19;;;;;;;18.35;12.68;;;;;;;;;;5045528;28;20037;-75
2021/12/23 02:23:45;;;;;;;18.30;12.88;;;;;;;;;;5054009;28;20045;-74
2021/12/23 02:26:11;;;;;;;16.52;12.48;;;;;;;;;;5069462;28;20048;-74
2021/12/23 02:28:37;;;;;;;19.88;12.73;;;;;;;;;;5037482;28;20334;-75
2021/12/23 02:31:03;;;;;;;18.77;12.48;;;;;;;;;;5052444;28;20128;-74
2021/12/23 02:33:30;;;;;;;18.63;12.60;;;;;;;;;;5051747;28;20049;-75
2021/12/23 02:35:58;;;;;;;17.50;12.35;;;;;;;;;;5056456;28;20060;-75
2021/12/23 02:38:24;;;;;;;17.88;12.15;;;;;;;;;;5051951;28;20029;-74
2021/12/23 02:40:50;;;;;;;18.45;12.65;;;;;;;;;;5056281;28;20044;-74
2021/12/23 02:43:16;;;;;;;17.17;12.07;;;;;;;;;;5039089;28;20036;-74
2021/12/23 02:45:43;;;;;;;20.10;12.82;;;;;;;;;;5055435;28;20555;-74
2021/12/23 02:48:36;;;;;;;20.50;12.88;;;;;;;;;;5045653;28;20051;-74
2021/12/23 02:51:03;;;;;;;17.25;12.32;;;;;;;;;;5032789;28;20462;-73
2021/12/23 02:53:30;;;;;;;17.38;12.13;;;;;;;;;;5039866;28;20041;-75
2021/12/23 02:55:57;;;;;;;20.15;13.48;;;;;;;;;;5056378;28;20055;-75
2021/12/23 02:58:23;;;;;;;17.88;11.77;;;;;;;;;;5055898;28;20115;-74
2021/12/23 03:00:51;;;;;;;17.60;12.82;;;;;;;;;;5048961;28;20048;-74
2021/12/23 03:03:17;;;;;;;19.00;12.90;;;;;;;;;;5054473;28;20528;-73
2021/12/23 03:05:50;;;;;;;18.35;13.70;;;;;;;;;;5039331;28;20044;-74
2021/12/23 03:08:26;;;;;;;18.55;13.30;;;;;;;;;;5055645;28;20048;-74
2021/12/23 03:10:52;;;;;;;19.20;12.88;;;;;;;;;;5055661;28;20037;-74
2021/12/23 03:13:18;;;;;;;19.27;13.10;;;;;;;;;;5054980;28;20040;-74
2021/12/23 03:15:44;;;;;;;19.92;12.98;;;;;;;;;;5039233;28;20095;-72
2021/12/23 03:18:10;;;;;;;20.60;13.02;;;;;;;;;;5055084;28;20037;-75
2021/12/23 03:20:36;;;;;;;18.58;12.05;;;;;;;;;;5056572;28;20049;-74
2021/12/23 03:23:03;;;;;;;19.38;13.18;;;;;;;;;;5056601;28;20123;-74
2021/12/23 03:25:29;;;;;;;21.77;13.20;;;;;;;;;;5053043;28;20050;-73
2021/12/23 03:27:55;;;;;;;18.50;13.75;;;;;;;;;;5045277;28;20033;-75
2021/12/23 03:30:21;;;;;;;18.48;12.57;;;;;;;;;;5053548;28;20111;-75
2021/12/23 03:32:47;;;;;;;19.70;13.85;;;;;;;;;;5054287;28;20067;-74
2021/12/23 03:35:13;;;;;;;18.67;12.27;;;;;;;;;;5054992;28;20040;-74
2021/12/23 03:37:39;;;;;;;19.30;12.38;;;;;;;;;;5041210;28;20045;-74
2021/12/23 03:40:06;;;;;;;18.10;12.52;;;;;;;;;;5036137;28;20044;-74
2021/12/23 03:42:32;;;;;;;20.25;13.55;;;;;;;;;;5034751;28;20053;-75
2021/12/23 03:44:58;;;;;;;18.08;12.45;;;;;;;;;;5035837;28;20041;-76
2021/12/23 03:47:24;;;;;;;18.25;13.02;;;;;;;;;;5036640;28;20045;-74
2021/12/23 03:49:50;;;;;;;20.45;13.10;;;;;;;;;;5035556;28;20135;-73
2021/12/23 03:52:16;;;;;;;18.17;12.55;;;;;;;;;;5035524;28;20475;-76
2021/12/23 03:54:42;;;;;;;17.83;12.80;;;;;;;;;;5068504;28;20037;-73
2021/12/23 03:57:08;;;;;;;21.73;13.68;;;;;;;;;;5046073;28;20057;-74
2021/12/23 03:59:34;;;;;;;17.98;13.02;;;;;;;;;;5051765;28;20042;-75
2021/12/23 04:02:01;;;;;;;17.60;12.73;;;;;;;;;;5045465;28;20045;-73
2021/12/23 04:04:27;;;;;;;18.27;13.27;;;;;;;;;;5041643;28;20041;-74
2021/12/23 04:06:53;;;;;;;17.20;12.68;;;;;;;;;;5043001;28;20039;-74
2021/12/23 04:09:19;;;;;;;19.15;13.10;;;;;;;;;;5037550;28;20110;-74
2021/12/23 04:11:45;;;;;;;19.20;13.60;;;;;;;;;;5034972;28;20349;-74
2021/12/23 04:14:12;;;;;;;20.10;13.98;;;;;;;;;;5035436;28;20053;-74
2021/12/23 04:16:38;;;;;;;22.80;14.02;;;;;;;;;;5034172;28;20056;-75
2021/12/23 04:19:09;;;;;;;19.55;13.50;;;;;;;;;;5050985;28;20045;-75
2021/12/23 04:21:35;;;;;;;19.13;13.60;;;;;;;;;;5034162;28;20049;-75
2021/12/23 04:24:04;;;;;;;19.50;13.23;;;;;;;;;;5051037;28;20417;-77
2021/12/23 04:26:30;;;;;;;19.15;13.38;;;;;;;;;;5070193;28;20060;-75
2021/12/23 04:28:57;;;;;;;21.40;13.75;;;;;;;;;;5053262;28;20045;-73
2021/12/23 04:31:24;;;;;;;20.50;13.80;;;;;;;;;;5051235;28;20058;-74
2021/12/23 04:33:51;;;;;;;22.35;14.05;;;;;;;;;;5034217;28;20041;-75
2021/12/23 04:36:18;;;;;;;18.88;12.82;;;;;;;;;;5044648;28;20037;-75
2021/12/23 04:38:45;;;;;;;23.92;15.02;;;;;;;;;;5053444;28;20055;-75
2021/12/23 04:41:12;;;;;;;22.02;14.25;;;;;;;;;;5053771;28;20052;-74
2021/12/23 04:43:39;;;;;;;20.70;14.30;;;;;;;;;;5054400;28;20456;-74
2021/12/23 04:46:05;;;;;;;22.30;14.60;;;;;;;;;;5036386;28;20045;-74
2021/12/23 04:48:31;;;;;;;20.63;13.93;;;;;;;;;;5053621;28;20090;-75
2021/12/23 04:50:58;;;;;;;23.23;13.90;;;;;;;;;;5051778;28;20379;-74
2021/12/23 04:53:25;;;;;;;20.55;13.48;;;;;;;;;;5054339;28;20103;-76
2021/12/23 04:55:51;;;;;;;20.50;14.05;;;;;;;;;;5053380;28;20478;-75
2021/12/23 04:58:17;;;;;;;21.52;14.15;;;;;;;;;;5054020;28;20055;-75
2021/12/23 05:00:47;;;;;;;20.65;14.38;;;;;;;;;;5051434;28;20051;-74
2021/12/23 05:03:14;;;;;;;22.00;14.43;;;;;;;;;;5053523;28;20467;-75
2021/12/23 05:05:40;;;;;;;23.08;15.35;;;;;;;;;;5036997;28;20405;-74
2021/12/23 05:08:06;;;;;;;23.85;14.93;;;;;;;;;;5048772;28;20102;-75
2021/12/23 05:10:32;;;;;;;21.35;14.43;;;;;;;;;;5017650;28;20045;-76
2021/12/23 05:12:59;;;;;;;21.77;14.32;;;;;;;;;;5001112;28;20053;-75
2021/12/23 05:15:25;;;;;;;21.05;14.35;;;;;;;;;;5024774;28;20381;-74
2021/12/23 05:17:51;;;;;;;20.77;14.15;;;;;;;;;;5033213;28;20519;-73
2021/12/23 05:20:18;;;;;;;20.77;13.02;;;;;;;;;;5033222;28;20533;-74
2021/12/23 05:22:44;;;;;;;20.55;14.00;;;;;;;;;;5040990;28;20029;-76
2021/12/23 05:25:11;;;;;;;21.00;14.35;;;;;;;;;;5046292;28;20041;-75
2021/12/23 05:27:38;;;;;;;19.35;13.30;;;;;;;;;;5037262;28;20102;-73
2021/12/23 05:30:05;;;;;;;23.00;15.05;;;;;;;;;;5016802;28;20042;-75
2021/12/23 05:32:32;;;;;;;21.85;14.65;;;;;;;;;;5069399;28;20445;-74
2021/12/23 05:34:58;;;;;;;21.67;14.18;;;;;;;;;;5035793;28;20060;-76
2021/12/23 05:37:24;;;;;;;23.33;13.88;;;;;;;;;;5016730;28;20353;-75
2021/12/23 05:39:50;;;;;;;25.40;14.73;;;;;;;;;;5032839;28;20142;-74
2021/12/23 05:42:16;;;;;;;21.55;14.77;;;;;;;;;;5028588;28;20033;-74
2021/12/23 05:44:42;;;;;;;22.73;14.63;;;;;;;;;;5046023;28;20057;-74
2021/12/23 05:47:08;;;;;;;22.88;13.95;;;;;;;;;;5053229;28;20060;-76
2021/12/23 05:49:34;;;;;;;21.27;14.75;;;;;;;;;;5053246;28;20084;-74
2021/12/23 05:52:00;;;;;;;19.83;14.40;;;;;;;;;;5035929;28;20053;-75
2021/12/23 05:54:26;;;;;;;21.92;14.35;;;;;;;;;;5050173;28;20060;-74
2021/12/23 05:56:53;;;;;;;20.65;15.05;;;;;;;;;;5052424;28;20052;-75
2021/12/23 05:59:19;;;;;;;23.98;15.25;;;;;;;;;;5053257;28;20056;-75
2021/12/23 06:01:45;;;;;;;22.92;14.48;;;;;;;;;;5052054;28;20052;-74
2021/12/23 06:04:11;;;;;;;22.27;14.25;;;;;;;;;;5052723;28;20037;-74
2021/12/23 06:06:37;;;;;;;24.63;15.32;;;;;;;;;;5052779;28;20117;-76
2021/12/23 06:09:03;;;;;;;22.60;15.15;;;;;;;;;;5052865;28;20041;-75
2021/12/23 06:11:29;;;;;;;24.55;16.30;;;;;;;;;;5052855;28;20063;-76
2021/12/23 06:13:55;;;;;;;24.98;16.42;;;;;;;;;;5052482;28;20459;-75
2021/12/23 06:16:21;;;;;;;21.13;14.52;;;;;;;;;;5050827;28;20047;-75
2021/12/23 06:18:48;;;;;;;21.73;15.35;;;;;;;;;;5053102;28;20045;-76
2021/12/23 06:21:14;;;;;;;24.83;16.10;;;;;;;;;;5031187;28;20092;-75
2021/12/23 06:23:40;;;;;;;24.08;15.65;;;;;;;;;;5053068;28;20045;-74
2021/12/23 06:26:07;;;;;;;22.70;15.40;;;;;;;;;;5034581;28;20054;-74
2021/12/23 06:28:33;;;;;;;21.98;15.50;;;;;;;;;;5052109;28;20047;-75
2021/12/23 06:30:59;;;;;;;22.52;14.98;;;;;;;;;;5052913;28;20064;-75
2021/12/23 06:33:25;;;;;;;24.02;15.95;;;;;;;;;;5039763;28;20151;-75
2021/12/23 06:35:51;;;;;;;23.77;15.40;;;;;;;;;;5036304;28;20045;-75
2021/12/23 06:38:18;;;;;;;22.15;15.27;;;;;;;;;;5037912;28;20493;-74
2021/12/23 06:40:44;;;;;;;24.80;15.93;;;;;;;;;;5036513;28;20369;-75
2021/12/23 06:43:10;;;;;;;25.65;16.73;;;;;;;;;;5036329;28;20056;-75
2021/12/23 06:45:36;;;;;;;26.30;16.35;;;;;;;;;;5027552;28;20036;-74
2021/12/23 06:48:02;;;;;;;23.60;16.15;;;;;;;;;;5036258;28;20463;-75
2021/12/23 06:50:28;;;;;;;25.25;16.40;;;;;;;;;;5036076;28;20452;-74
2021/12/23 06:52:55;;;;;;;23.77;15.63;;;;;;;;;;5036400;28;20467;-76
2021/12/23 06:55:21;;;;;;;24.98;16.85;;;;;;;;;;5056223;28;20044;-75
2021/12/23 06:57:53;;;;;;;25.08;16.45;;;;;;;;;;5039272;28;20073;-75
2021/12/23 07:00:19;;;;;;;27.08;15.77;;;;;;;;;;5056028;28;20055;-75
2021/12/23 07:02:45;;;;;;;25.75;15.43;;;;;;;;;;5055071;28;20044;-76
2021/12/23 07:05:11;;;;;;;24.75;16.52;;;;;;;;;;5055619;28;20045;-75
2021/12/23 07:08:03;;;;;;;24.33;15.93;;;;;;;;;;5056745;28;20136;-74
2021/12/23 07:10:30;;;;;;;24.15;16.38;;;;;;;;;;5036977;28;20080;-75
2021/12/23 07:12:56;;;;;;;24.50;16.40;;;;;;;;;;5043994;28;20115;-75
2021/12/23 07:15:24;;;;;;;25.52;17.45;;;;;;;;;;5054666;28;20360;-76
2021/12/23 07:17:50;;;;;;;23.88;16.67;;;;;;;;;;5055549;28;20060;-76
2021/12/23 07:20:16;;;;;;;26.42;16.40;;;;;;;;;;5056245;28;20132;-76
2021/12/23 07:22:42;;;;;;;27.02;17.05;;;;;;;;;;5038586;28;20103;-76
2021/12/23 07:25:09;;;;;;;27.70;17.83;;;;;;;;;;5055067;28;20041;-76
2021/12/23 07:27:35;;;;;;;26.65;17.63;;;;;;;;;;5055328;28;20048;-77
2021/12/23 07:30:02;;;;;;;27.45;17.08;;;;;;;;;;5054881;28;20155;-75
2021/12/23 07:32:28;;;;;;;24.63;16.75;;;;;;;;;;5046042;28;20361;-74
2021/12/23 07:34:54;;;;;;;25.48;17.48;;;;;;;;;;5055094;28;20075;-75
2021/12/23 07:37:20;;;;;;;26.00;17.30;;;;;;;;;;5054969;28;20036;-77
2021/12/23 07:39:47;;;;;;;26.58;17.10;;;;;;;;;;5053902;28;20048;-75
2021/12/23 07:42:15;;;;;;;26.35;17.40;;;;;;;;;;5050648;28;20041;-76
2021/12/23 07:44:42;;;;;;;28.25;17.63;;;;;;;;;;5018213;28;20041;-74
2021/12/23 07:47:08;;;;;;;29.35;17.55;;;;;;;;;;5035348;28;20124;-74
2021/12/23 07:49:34;;;;;;;25.90;17.30;;;;;;;;;;5018991;28;20045;-75
2021/12/23 07:52:00;;;;;;;28.77;17.95;;;;;;;;;;5034913;28;20052;-76
2021/12/23 07:54:26;;;;;;;24.83;16.08;;;;;;;;;;5047987;28;20118;-76
2021/12/23 07:56:52;;;;;;;28.55;17.98;;;;;;;;;;5045166;28;20056;-76
2021/12/23 07:59:18;;;;;;;26.25;18.17;;;;;;;;;;5034686;28;20041;-74
2021/12/23 08:01:45;;;;;;;26.15;17.05;;;;;;;;;;5023323;28;20460;-75
2021/12/23 08:04:11;;;;;;;26.25;17.30;;;;;;;;;;5056981;28;20036;-76
2021/12/23 08:06:37;;;;;;;26.92;18.20;;;;;;;;;;5055576;28;20036;-76
2021/12/23 08:09:06;;;;;;;26.08;17.30;;;;;;;;;;5035320;28;20341;-76
2021/12/23 08:11:32;;;;;;;26.92;18.23;;;;;;;;;;5017770;28;20041;-76
2021/12/23 08:14:01;;;;;;;29.13;18.00;;;;;;;;;;5035390;28;20349;-75
2021/12/23 08:16:27;;;;;;;26.52;18.08;;;;;;;;;;5019236;28;20449;-75
2021/12/23 08:18:53;;;;;;;29.48;19.20;;;;;;;;;;5050520;28;20037;-75
2021/12/23 08:21:22;;;;;;;27.42;18.35;;;;;;;;;;5037663;28;20048;-75
2021/12/23 08:23:48;;;;;;;29.38;18.10;;;;;;;;;;5035668;28;20037;-75
2021/12/23 08:26:21;;;;;;;27.55;18.77;;;;;;;;;;5017710;28;20580;-75
2021/12/23 08:28:50;;;;;;;27.83;18.73;;;;;;;;;;5017992;28;20037;-75
2021/12/23 08:31:20;;;;;;;29.33;18.92;;;;;;;;;;5005252;28;20029;-76
2021/12/23 08:33:59;;;;;;;31.65;19.35;;;;;;;;;;5035648;28;20059;-77
2021/12/23 08:37:06;;;;;;;31.30;19.58;;;;;;;;;;4942759;28;20078;-78
2021/12/23 08:39:47;;;;;;;29.20;18.67;;;;;;;;;;4951476;28;20046;-76
2021/12/23 08:42:25;;;;;;;33.50;20.38;;;;;;;;;;4980078;28;20069;-76
2021/12/23 08:44:51;;;;;;;32.67;19.85;;;;;;;;;;5013431;28;20107;-76
2021/12/23 08:47:17;;;;;;;34.75;20.15;;;;;;;;;;5037064;28;20478;-76
2021/12/23 08:49:44;;;;;;;32.75;20.55;;;;;;;;;;5047472;28;20033;-76
2021/12/23 08:52:14;;;;;;;31.23;21.02;;;;;;;;;;5027233;28;20150;-76
2021/12/23 08:54:42;;;;;;;34.38;21.90;;;;;;;;;;5013030;28;20214;-76
2021/12/23 08:57:11;;;;;;;34.65;22.00;;;;;;;;;;5000071;28;20040;-76
2021/12/23 08:59:37;;;;;;;36.08;21.67;;;;;;;;;;5017264;28;20128;-77
2021/12/23 09:02:04;;;;;;;35.53;22.25;;;;;;;;;;5031306;28;20113;-76
2021/12/23 09:04:32;;;;;;;34.85;22.83;;;;;;;;;;5019645;28;20521;-75
2021/12/23 09:07:07;;;;;;;34.10;22.85;;;;;;;;;;5037602;28;20033;-76
2021/12/23 09:09:35;;;;;;;33.10;21.60;;;;;;;;;;5032531;28;20114;-75
2021/12/23 09:12:11;;;;;;;;;;;;;;;;;;;;;
2021/12/23 09:14:43;;;;;;;35.28;22.67;;;;;;;;;;5025680;28;20149;-75
2021/12/23 09:17:10;;;;;;;35.17;22.40;;;;;;;;;;5012742;28;20036;-77
2021/12/23 09:19:36;;;;;;;36.95;22.77;;;;;;;;;;5033154;28;20045;-77
2021/12/23 09:22:02;;;;;;;39.55;24.35;;;;;;;;;;5020273;28;20048;-77
2021/12/23 09:24:30;;;;;;;39.70;24.38;;;;;;;;;;5036183;28;20104;-76
2021/12/23 09:27:02;;;;;;;39.95;24.65;;;;;;;;;;5053366;28;20120;-77
2021/12/23 09:34:45;;;;;;;41.35;25.83;;;;;;;;;;5053998;28;20131;-77
2021/12/23 09:37:14;;;;;;;39.47;24.50;;;;;;;;;;5050975;28;20037;-80
2021/12/23 09:39:40;;;;;;;42.95;24.63;;;;;;;;;;5017590;28;20111;-77
2021/12/23 09:42:07;;;;;;;43.25;26.48;;;;;;;;;;5011837;28;20151;-78
2021/12/23 09:44:37;;;;;;;42.33;26.92;;;;;;;;;;5006719;28;20034;-78
2021/12/23 09:47:03;;;;;;;42.00;24.40;;;;;;;;;;5019654;28;20037;-78
2021/12/23 09:49:30;;;;;;;42.50;25.95;;;;;;;;;;5036259;28;20405;-77
2021/12/23 09:52:03;;;;;;;44.83;26.65;;;;;;;;;;5020554;28;20124;-78
2021/12/23 09:54:30;;;;;;;44.25;27.13;;;;;;;;;;5033838;28;20029;-78
2021/12/23 09:57:05;;;;;;;42.20;26.30;;;;;;;;;;5027716;28;20395;-79
2021/12/23 09:59:31;;;;;;;44.35;25.27;;;;;;;;;;5028055;28;20099;-79
2021/12/23 10:02:16;;;;;;;47.25;27.52;;;;;;;;;;5052338;28;20089;-79
2021/12/23 10:04:42;;;;;;;45.22;26.98;;;;;;;;;;5036525;28;20033;-77
2021/12/23 10:07:08;;;;;;;47.60;28.17;;;;;;;;;;5035768;28;20501;-78
2021/12/23 10:31:48;;;;;;;51.97;28.40;;;;;;;;;;5039604;28;20041;-81
2021/12/23 10:37:22;;;;;;;57.65;29.65;;;;;;;;;;5038956;28;20052;-79
2021/12/23 10:39:53;;;;;;;59.78;30.35;;;;;;;;;;5036682;28;20041;-79
2021/12/23 10:42:21;;;;;;;59.75;30.83;;;;;;;;;;5022856;28;20112;-78
2021/12/23 10:44:48;;;;;;;65.90;32.30;;;;;;;;;;5021847;28;20456;-79
2021/12/23 10:47:31;;;;;;;61.72;29.95;;;;;;;;;;5039869;28;20059;-77
2021/12/23 10:50:13;;;;;;;56.17;30.90;;;;;;;;;;5040142;28;20127;-78
2021/12/23 10:52:48;;;;;;;62.33;31.48;;;;;;;;;;5022939;28;20045;-78
2021/12/23 10:58:05;;;;;;;65.95;31.38;;;;;;;;;;5039275;28;20371;-79
2021/12/23 11:00:33;;;;;;;63.88;30.17;;;;;;;;;;5022471;28;20102;-79
2021/12/23 11:03:07;;;;;;;66.05;29.75;;;;;;;;;;5022518;28;20075;-79
2021/12/23 11:05:39;;;;;;;65.00;31.63;;;;;;;;;;5039063;28;20080;-80
2021/12/23 11:38:20;;;;;;;60.75;30.02;;;;;;;;;;5038691;28;20053;-79
2021/12/23 11:45:45;;;;;;;59.22;28.85;;;;;;;;;;5038710;28;20404;-77
2021/12/23 11:48:12;;;;;;;59.90;30.13;;;;;;;;;;5022215;28;20456;-79
2021/12/23 11:51:29;;;;;;;49.75;26.13;;;;;;;;;;5022339;28;20111;-80
2021/12/23 11:53:28;;;;;;;62.72;29.65;;;;;;;;;;5022668;28;20126;-78
2021/12/23 11:56:01;;;;;;;58.03;29.75;;;;;;;;;;5020952;28;20037;-78
2021/12/23 11:58:28;;;;;;;56.30;29.73;;;;;;;;;;5038368;28;20452;-77
2021/12/23 12:01:03;;;;;;;58.65;30.73;;;;;;;;;;5038131;28;20041;-77
2021/12/23 12:03:29;;;;;;;59.05;30.00;;;;;;;;;;5055882;28;20032;-78
2021/12/23 12:06:12;;;;;;;59.15;30.45;;;;;;;;;;5037335;28;20037;-78
2021/12/23 12:08:39;;;;;;;57.28;30.05;;;;;;;;;;5038507;28;20069;-79
2021/12/23 12:11:15;;;;;;;58.80;29.98;;;;;;;;;;5037446;28;20045;-80
2021/12/23 12:13:41;;;;;;;64.47;32.53;;;;;;;;;;5038220;28;20041;-79
2021/12/23 12:16:26;;;;;;;62.10;30.35;;;;;;;;;;5020402;28;20036;-79
2021/12/23 12:18:52;;;;;;;59.97;31.30;;;;;;;;;;5036867;28;20144;-78
2021/12/23 12:21:32;;;;;;;58.67;30.85;;;;;;;;;;5036907;28;20049;-75
2021/12/23 12:24:07;;;;;;;57.55;28.90;;;;;;;;;;5033069;28;20040;-78
2021/12/23 12:26:37;;;;;;;63.37;30.20;;;;;;;;;;5030071;28;20120;-78
2021/12/23 12:29:06;;;;;;;67.25;32.42;;;;;;;;;;5043566;28;20444;-79
2021/12/23 12:31:42;;;;;;;64.55;33.80;;;;;;;;;;5017376;28;20053;-79
2021/12/23 12:34:08;;;;;;;;;;;;;;;;;;5018159;28;20073;-77
2021/12/23 12:36:47;;;;;;;63.47;30.55;;;;;;;;;;5022315;28;19924;-77
2021/12/23 12:39:15;;;;;;;61.17;30.80;;;;;;;;;;5021040;28;20159;-77
2021/12/23 12:41:42;;;;;;;63.42;31.45;;;;;;;;;;5021042;28;20045;-77
2021/12/23 12:44:17;;;;;;;70.50;32.08;;;;;;;;;;5017604;28;20046;-78
2021/12/23 12:46:50;;;;;;;66.25;32.22;;;;;;;;;;5017509;28;20037;-79
2021/12/23 12:49:24;;;;;;;66.60;34.58;;;;;;;;;;5034182;28;20044;-79
2021/12/23 12:51:51;;;;;;;66.88;30.60;;;;;;;;;;5037312;28;20445;-77
2021/12/23 12:54:22;;;;;;;71.88;33.28;;;;;;;;;;5036981;28;20060;-78
2021/12/23 12:56:51;;;;;;;73.45;33.58;;;;;;;;;;5035536;28;20048;-76
2021/12/23 12:59:20;;;;;;;63.42;31.23;;;;;;;;;;5019278;28;20040;-77
2021/12/23 13:01:48;;;;;;;65.45;31.63;;;;;;;;;;5033324;28;20436;-78
2021/12/23 13:04:22;;;;;;;72.63;33.97;;;;;;;;;;5035814;28;20040;-78
2021/12/23 13:06:48;;;;;;;69.75;33.72;;;;;;;;;;5033932;28;20116;-78
2021/12/23 13:09:16;;;;;;;70.43;33.15;;;;;;;;;;5022073;28;20091;-75
2021/12/23 13:11:43;;;;;;;68.20;31.70;;;;;;;;;;5034150;28;20086;-74
2021/12/23 13:14:14;;;;;;;70.78;34.45;;;;;;;;;;5036702;28;20457;-75
2021/12/23 13:17:10;;;;;;;70.45;33.10;;;;;;;;;;5036917;28;20049;-76
2021/12/23 13:19:36;;;;;;;70.32;33.30;;;;;;;;;;5011563;28;20049;-78
2021/12/23 13:22:07;;;;;;;65.97;32.08;;;;;;;;;;5023866;28;20041;-75
2021/12/23 13:24:34;;;;;;;66.97;33.42;;;;;;;;;;4993086;28;20037;-75
2021/12/23 13:27:00;;;;;;;68.97;32.95;;;;;;;;;;5018118;28;20049;-77
2021/12/23 13:29:29;;;;;;;72.35;32.25;;;;;;;;;;5014165;28;20054;-76
2021/12/23 13:31:57;;;;;;;71.72;32.67;;;;;;;;;;5015470;28;20050;-75
2021/12/23 13:34:28;;;;;;;67.22;32.67;;;;;;;;;;5016836;28;20051;-77
2021/12/23 13:36:58;;;;;;;74.18;34.25;;;;;;;;;;5016201;28;20056;-74
2021/12/23 13:39:28;;;;;;;65.20;30.77;;;;;;;;;;5033368;28;20049;-74
2021/12/23 13:41:56;;;;;;;72.00;33.70;;;;;;;;;;5035334;28;20040;-75
2021/12/23 13:44:27;;;;;;;62.60;30.27;;;;;;;;;;5029667;28;20041;-77
2021/12/23 13:46:58;;;;;;;69.63;33.65;;;;;;;;;;5014379;28;20041;-77
2021/12/23 13:49:31;;;;;;;72.72;34.80;;;;;;;;;;5016511;28;20045;-78
2021/12/23 13:51:57;;;;;;;66.32;31.63;;;;;;;;;;5016822;28;20095;-77
2021/12/23 13:54:23;;;;;;;68.97;34.45;;;;;;;;;;5016723;28;20041;-78
2021/12/23 13:56:51;;;;;;;69.82;34.30;;;;;;;;;;5003964;28;20104;-78
2021/12/23 13:59:17;;;;;;;74.50;35.35;;;;;;;;;;4998596;28;20462;-78
2021/12/23 14:01:52;;;;;;;67.63;31.98;;;;;;;;;;4996787;28;20109;-77
2021/12/23 14:04:34;;;;;;;69.72;32.38;;;;;;;;;;4992030;28;20045;-79
2021/12/23 14:07:00;;;;;;;71.80;33.65;;;;;;;;;;5014799;28;20132;-78
2021/12/23 14:09:33;;;;;;;77.40;33.63;;;;;;;;;;5015685;28;20056;-78
2021/12/23 14:12:00;;;;;;;74.78;33.67;;;;;;;;;;5000176;28;20045;-78
2021/12/23 14:14:26;;;;;;;65.78;30.33;;;;;;;;;;5049577;28;20049;-79
2021/12/23 14:16:52;;;;;;;68.30;31.67;;;;;;;;;;4993558;28;20040;-78
2021/12/23 14:19:26;;;;;;;82.30;36.25;;;;;;;;;;5017478;28;20096;-78
2021/12/23 14:24:38;;;;;;;66.38;32.45;;;;;;;;;;5051021;28;20049;-80
2021/12/23 14:27:04;;;;;;;74.22;33.25;;;;;;;;;;5034409;28;20393;-78
2021/12/23 14:29:37;;;;;;;64.25;31.27;;;;;;;;;;5031654;28;20040;-78
2021/12/23 14:32:03;;;;;;;77.05;33.85;;;;;;;;;;5019054;28;20036;-78
2021/12/23 14:34:33;;;;;;;82.20;34.35;;;;;;;;;;5019144;28;20040;-76
2021/12/23 14:37:00;;;;;;;76.55;33.83;;;;;;;;;;5035152;28;20071;-77
2021/12/23 14:39:28;;;;;;;79.18;36.10;;;;;;;;;;5046501;28;20041;-78
2021/12/23 14:41:56;;;;;;;74.85;34.47;;;;;;;;;;5028316;28;20033;-77
2021/12/23 14:44:27;;;;;;;71.45;32.15;;;;;;;;;;5001327;28;20042;-78
2021/12/23 14:47:14;;;;;;;76.45;35.33;;;;;;;;;;5052359;28;20072;-74
2021/12/23 14:52:20;;;;;;;82.53;34.53;;;;;;;;;;5017648;28;20069;-76
2021/12/23 14:54:50;;;;;;;74.67;33.03;;;;;;;;;;5036725;28;20041;-77
2021/12/23 14:57:18;;;;;;;66.25;31.80;;;;;;;;;;5038206;28;20101;-78
2021/12/23 14:59:45;;;;;;;85.13;35.35;;;;;;;;;;5028977;28;20040;-79
2021/12/23 15:02:11;;;;;;;94.00;37.08;;;;;;;;;;5028145;28;20567;-77
2021/12/23 15:04:57;;;;;;;92.93;37.78;;;;;;;;;;5026796;28;20055;-79
2021/12/23 15:07:23;;;;;;;76.35;33.33;;;;;;;;;;5039384;28;20124;-79
2021/12/23 15:09:55;;;;;;;96.20;35.80;;;;;;;;;;5027433;28;20060;-77
2021/12/23 15:12:23;;;;;;;93.72;36.30;;;;;;;;;;5019571;28;20053;-78
2021/12/23 15:14:54;;;;;;;93.72;37.45;;;;;;;;;;5019037;28;20056;-78
2021/12/23 15:17:30;;;;;;;109.35;40.65;;;;;;;;;;5019222;28;20048;-79
2021/12/23 15:19:57;;;;;;;99.32;38.35;;;;;;;;;;5030709;28;20049;-77
2021/12/23 15:22:25;;;;;;;94.18;36.05;;;;;;;;;;5038949;28;20257;-80
2021/12/23 15:25:20;;;;;;;100.88;38.55;;;;;;;;;;5022642;28;20045;-76
2021/12/23 15:27:46;;;;;;;110.30;41.20;;;;;;;;;;5026387;28;20049;-79
2021/12/23 15:30:17;;;;;;;109.63;41.08;;;;;;;;;;5056606;28;20040;-78
2021/12/23 15:32:44;;;;;;;105.25;39.30;;;;;;;;;;5038679;28;20037;-78
2021/12/23 15:35:14;;;;;;;111.45;39.63;;;;;;;;;;5038734;28;20037;-76
2021/12/23 15:37:42;;;;;;;116.95;41.08;;;;;;;;;;5038449;28;20055;-76
2021/12/23 15:40:14;;;;;;;121.43;43.58;;;;;;;;;;5038524;28;20037;-77
2021/12/23 15:42:40;;;;;;;130.90;45.33;;;;;;;;;;5038505;28;20064;-79
2021/12/23 15:45:06;;;;;;;121.68;44.78;;;;;;;;;;5031628;28;20049;-77
2021/12/23 15:47:32;;;;;;;115.72;39.63;;;;;;;;;;5053744;28;20071;-78